Baaiduinen, Netherlands

6:06 AM CET on February 27, 2017 (GMT +0100)
West Terschelling | | Change Station

Elev 26 ft 53.37 °N, 5.22 °E | Updated 5 minutes ago

Overcast
Overcast
45.7 °F
Feels Like 41 °F
N
9.7
Wind Variable Wind from SSW
Gusts 17.1 mph

Today
High -- | Low -- °F
--% Chance of Precip.
Yesterday
High -- | Low -- °F
Precip. -- in
Pressure 29.50 in
Visibility 1.7 miles
Clouds Few 300 ft
Mostly Cloudy 500 ft
Overcast 600 ft
Windchill 41 °F
Dew Point 46 °F
Humidity 100%
Rainfall 1.18 in
Snow Depth Not available.
7:30 AM 6:13 PM
New Moon, 0% visible
METAR EHVL 270455Z AUTO 20024KT 2800 -RA FEW003 BKN005 OVC006 08/07 Q0999 YLO
Pressure 29.50 in
Visibility 1.7 miles
Clouds Few 300 ft
Mostly Cloudy 500 ft
Overcast 600 ft
Windchill 41 °F
Dew Point 46 °F
Humidity 100%
Rainfall 1.18 in
Snow Depth Not available.
7:30 AM 6:13 PM
New Moon, 0% visible
METAR EHVL 270455Z AUTO 20024KT 2800 -RA FEW003 BKN005 OVC006 08/07 Q0999 YLO

Get Your Daily Forecast Email!

Thanks for signing up!

Be on the lookout for a verification email in your inbox.

You'll start receiving the daily forecast at 8 AM.

×

10-Day Weather Forecast

×

Almanac

Astronomy

Feb. 27, 2017 Rise Set
Actual Time
Civil Twilight
Nautical Twilight
Astronomical Twilight
Moon
Length of Visible Light
Length of Day
Tomorrow will be .
, % of the Moon is Illuminated

Today's Extremes

Country Highs Country Lows

Community

WunderPhotos

Upload Photos

1,962,540 photos uploaded!

WunderBlog® & News

Nearby

Air Quality

  Air Quality AQ Index Pollutant
Not available.

Snow Depth

Station Depth Elevation

Earthquake Activity

City Distance Mag. Time & Date
Minimum magnitude displayed is 2.5.

Coastal Water Temperatures

Place Temperature

Stations

Nearby Weather Stations

Station Location Temp. Windchill Dew Point Humidity Wind Precip. Elev Updated Type